Time,TemperatureF,DewpointF,PressureIn,WindDirection,WindDirectionDegrees,WindSpeedMPH,WindSpeedGustMPH,Humidity,HourlyPrecipIn,Conditions,Clouds,dailyrainin,SoftwareType,DateUTC
2013-04-22 00:01:00,41.4,1.0,29.77,NE,42,0.0,0.0,18,0.00,,---,0.00,VWS V14.01,2013-04-22 04:01:00,
2013-04-22 00:02:00,41.4,1.0,29.77,NE,42,0.0,0.0,18,0.00,,---,0.00,VWS V14.01,2013-04-22 04:02:00,
2013-04-22 00:03:00,41.4,1.0,29.77,NE,42,0.0,0.0,18,0.00,,---,0.00,VWS V14.01,2013-04-22 04:03:00,
2013-04-22 00:05:00,41.4,1.0,29.77,NE,43,0.0,0.0,18,0.00,,---,0.00,VWS V14.01,2013-04-22 04:05:00,
2013-04-22 00:06:00,41.4,1.0,29.77,NE,42,0.0,0.0,18,0.00,,---,0.00,VWS V14.01,2013-04-22 04:06:00,
2013-04-22 00:11:00,41.4,1.0,29.77,NE,42,0.0,0.0,18,0.00,,---,0.00,VWS V14.01,2013-04-22 04:11:00,
2013-04-22 00:16:00,41.4,1.0,29.77,NE,42,0.0,0.0,18,0.00,,---,0.00,VWS V14.01,2013-04-22 04:16:00,
2013-04-22 00:21:00,41.4,1.0,29.77,NE,42,0.0,0.0,18,0.00,,---,0.00,VWS V14.01,2013-04-22 04:21:00,
2013-04-22 00:26:00,41.2,0.9,29.77,NE,44,0.0,0.0,18,0.00,,---,0.00,VWS V14.01,2013-04-22 04:26:00,
2013-04-22 00:31:00,41.2,0.9,29.77,East,95,3.1,3.1,18,0.00,,---,0.00,VWS V14.01,2013-04-22 04:31:00,
2013-04-22 00:36:00,41.2,0.9,29.77,East,96,3.1,4.9,18,0.00,,---,0.00,VWS V14.01,2013-04-22 04:36:00,
2013-04-22 00:41:00,41.2,0.9,29.77,SSE,158,3.6,5.8,18,0.00,,---,0.00,VWS V14.01,2013-04-22 04:41:00,
2013-04-22 00:46:00,41.2,0.9,29.77,SSE,156,2.7,4.0,18,0.00,,---,0.00,VWS V14.01,2013-04-22 04:46:00,
2013-04-22 00:51:00,41.0,0.8,29.77,South,170,4.9,4.9,18,0.00,,---,0.00,VWS V14.01,2013-04-22 04:51:00,
2013-04-22 00:56:00,41.0,4.1,29.77,SSE,153,3.1,4.0,21,0.00,,---,0.00,VWS V14.01,2013-04-22 04:56:00,
2013-04-22 01:01:00,40.8,3.9,29.77,SE,135,5.4,7.4,21,0.00,,---,0.00,VWS V14.01,2013-04-22 05:01:00,
2013-04-22 01:06:00,40.6,10.1,29.77,South,185,3.1,6.7,28,0.00,,---,0.00,VWS V14.01,2013-04-22 05:06:00,
2013-04-22 01:11:00,40.6,10.9,29.77,SE,143,3.6,6.3,29,0.00,,---,0.00,VWS V14.01,2013-04-22 05:11:00,
2013-04-22 01:16:00,40.5,11.5,29.77,WSW,237,0.0,4.9,30,0.00,,---,0.00,VWS V14.01,2013-04-22 05:16:00,
2013-04-22 01:21:00,40.5,12.2,29.77,SSE,148,0.0,4.5,31,0.00,,---,0.00,VWS V14.01,2013-04-22 05:21:00,
2013-04-22 01:26:00,40.3,13.5,29.77,South,175,0.0,4.5,33,0.00,,---,0.00,VWS V14.01,2013-04-22 05:26:00,
2013-04-22 01:31:00,40.3,14.2,29.77,SSE,149,2.7,4.0,34,0.00,,---,0.00,VWS V14.01,2013-04-22 05:31:00,
2013-04-22 01:36:00,40.3,15.5,29.77,SE,133,0.0,0.0,36,0.00,,---,0.00,VWS V14.01,2013-04-22 05:36:00,
2013-04-22 01:41:00,40.3,16.1,29.77,SSE,150,0.0,3.1,37,0.00,,---,0.00,VWS V14.01,2013-04-22 05:41:00,
2013-04-22 01:46:00,40.3,16.7,29.77,WSW,248,0.0,0.0,38,0.00,,---,0.00,VWS V14.01,2013-04-22 05:46:00,
2013-04-22 01:51:00,40.3,16.7,29.77,WSW,248,0.0,0.0,38,0.00,,---,0.00,VWS V14.01,2013-04-22 05:51:00,
2013-04-22 01:56:00,40.1,17.1,29.77,SSE,156,0.0,3.1,39,0.00,,---,0.00,VWS V14.01,2013-04-22 05:56:00,
2013-04-22 02:01:00,39.9,17.0,29.77,SSE,156,0.0,0.0,39,0.00,,---,0.00,VWS V14.01,2013-04-22 06:01:00,
2013-04-22 02:06:00,39.9,17.0,29.77,SE,136,0.0,0.0,39,0.00,,---,0.00,VWS V14.01,2013-04-22 06:06:00,
2013-04-22 02:11:00,39.9,17.0,29.77,SSE,157,0.0,3.6,39,0.00,,---,0.00,VWS V14.01,2013-04-22 06:11:00,
2013-04-22 02:16:00,39.9,17.0,29.77,SE,145,3.6,4.0,39,0.00,,---,0.00,VWS V14.01,2013-04-22 06:16:00,
2013-04-22 02:21:00,39.9,17.6,29.77,SE,145,3.6,3.6,40,0.00,,---,0.00,VWS V14.01,2013-04-22 06:21:00,
2013-04-22 02:26:00,39.9,17.6,29.77,SSE,163,2.7,4.0,40,0.00,,---,0.00,VWS V14.01,2013-04-22 06:26:00,
2013-04-22 02:31:00,39.7,17.4,29.77,SSE,156,3.1,4.0,40,0.00,,---,0.00,VWS V14.01,2013-04-22 06:31:00,
2013-04-22 02:36:00,39.7,17.4,29.77,SE,139,3.1,3.1,40,0.00,,---,0.00,VWS V14.01,2013-04-22 06:36:00,
2013-04-22 02:41:00,39.6,17.2,29.77,East,86,0.0,2.7,40,0.00,,---,0.00,VWS V14.01,2013-04-22 06:41:00,
2013-04-22 02:46:00,39.4,17.1,29.77,ESE,120,0.0,0.0,40,0.00,,---,0.00,VWS V14.01,2013-04-22 06:46:00,
2013-04-22 02:51:00,39.4,17.7,29.77,SSE,163,2.7,4.0,41,0.00,,---,0.00,VWS V14.01,2013-04-22 06:51:00,
2013-04-22 02:56:00,39.4,17.7,29.77,SSE,165,3.1,3.6,41,0.00,,---,0.00,VWS V14.01,2013-04-22 06:56:00,
2013-04-22 03:01:00,39.2,17.5,29.77,ESE,105,3.6,3.6,41,0.00,,---,0.00,VWS V14.01,2013-04-22 07:01:00,
2013-04-22 03:06:00,39.2,18.0,29.77,SSW,205,0.0,0.0,42,0.00,,---,0.00,VWS V14.01,2013-04-22 07:06:00,
2013-04-22 03:11:00,39.0,18.4,29.77,SSE,162,3.1,4.5,43,0.00,,---,0.00,VWS V14.01,2013-04-22 07:11:00,
2013-04-22 03:16:00,39.0,18.4,29.77,SSE,161,3.1,4.0,43,0.00,,---,0.00,VWS V14.01,2013-04-22 07:16:00,
2013-04-22 03:21:00,38.8,18.3,29.77,South,171,3.1,4.9,43,0.00,,---,0.00,VWS V14.01,2013-04-22 07:21:00,
2013-04-22 03:26:00,38.8,18.3,29.77,South,179,3.6,4.0,43,0.00,,---,0.00,VWS V14.01,2013-04-22 07:26:00,
2013-04-22 03:31:00,38.7,18.1,29.77,SSE,152,3.1,4.0,43,0.00,,---,0.00,VWS V14.01,2013-04-22 07:31:00,
2013-04-22 03:36:00,38.7,18.6,29.77,SSE,153,4.0,4.5,44,0.00,,---,0.00,VWS V14.01,2013-04-22 07:36:00,
2013-04-22 03:41:00,38.7,18.6,29.77,SSE,156,4.9,4.9,44,0.00,,---,0.00,VWS V14.01,2013-04-22 07:41:00,
2013-04-22 03:46:00,38.7,18.6,29.77,SSE,151,0.0,0.0,44,0.00,,---,0.00,VWS V14.01,2013-04-22 07:46:00,
2013-04-22 03:51:00,38.5,18.5,29.77,SSE,150,2.7,3.6,44,0.00,,---,0.00,VWS V14.01,2013-04-22 07:51:00,
2013-04-22 03:56:00,38.5,18.5,29.77,SSE,161,0.0,0.0,44,0.00,,---,0.00,VWS V14.01,2013-04-22 07:56:00,
2013-04-22 04:01:00,38.5,18.5,29.77,ESE,105,0.0,3.1,44,0.00,,---,0.00,VWS V14.01,2013-04-22 08:01:00,
2013-04-22 04:06:00,38.5,18.5,29.77,ESE,118,0.0,0.0,44,0.00,,---,0.00,VWS V14.01,2013-04-22 08:06:00,
2013-04-22 04:11:00,38.3,18.8,29.77,ESE,116,3.1,4.5,45,0.00,,---,0.00,VWS V14.01,2013-04-22 08:11:00,
2013-04-22 04:16:00,38.1,18.7,29.77,South,169,0.0,0.0,45,0.00,,---,0.00,VWS V14.01,2013-04-22 08:16:00,
2013-04-22 04:21:00,38.1,19.2,29.77,SE,132,0.0,0.0,46,0.00,,---,0.00,VWS V14.01,2013-04-22 08:21:00,
2013-04-22 04:26:00,37.9,19.0,29.77,SE,132,2.7,4.0,46,0.00,,---,0.00,VWS V14.01,2013-04-22 08:26:00,
2013-04-22 04:31:00,37.9,19.5,29.77,SE,137,3.6,4.0,47,0.00,,---,0.00,VWS V14.01,2013-04-22 08:31:00,
2013-04-22 04:36:00,37.8,19.4,29.77,SSE,166,0.0,0.0,47,0.00,,---,0.00,VWS V14.01,2013-04-22 08:36:00,
2013-04-22 04:41:00,37.8,19.9,29.77,SE,145,2.7,3.6,48,0.00,,---,0.00,VWS V14.01,2013-04-22 08:41:00,
2013-04-22 04:46:00,37.8,19.9,29.77,SSE,166,0.0,3.1,48,0.00,,---,0.00,VWS V14.01,2013-04-22 08:46:00,
2013-04-22 04:51:00,37.8,20.3,29.77,SSE,155,3.1,4.5,49,0.00,,---,0.00,VWS V14.01,2013-04-22 08:51:00,
2013-04-22 04:56:00,37.6,20.2,29.77,South,175,0.0,0.0,49,0.00,,---,0.00,VWS V14.01,2013-04-22 08:56:00,
2013-04-22 05:01:00,37.6,20.2,29.77,SSE,162,0.0,0.0,49,0.00,,---,0.00,VWS V14.01,2013-04-22 09:01:00,
2013-04-22 05:06:00,37.6,20.2,29.77,ESE,107,2.7,2.7,49,0.00,,---,0.00,VWS V14.01,2013-04-22 09:06:00,
2013-04-22 05:11:00,37.6,20.2,29.77,ESE,107,0.0,0.0,49,0.00,,---,0.00,VWS V14.01,2013-04-22 09:11:00,
2013-04-22 05:16:00,37.4,20.0,29.77,ESE,107,0.0,0.0,49,0.00,,---,0.00,VWS V14.01,2013-04-22 09:16:00,
2013-04-22 05:22:00,37.2,19.8,29.77,ESE,113,0.0,0.0,49,0.00,,---,0.00,VWS V14.01,2013-04-22 09:22:00,
2013-04-22 05:27:00,37.0,19.7,29.77,ESE,121,0.0,0.0,49,0.00,,---,0.00,VWS V14.01,2013-04-22 09:27:00,
2013-04-22 05:32:00,37.0,19.7,29.80,ESE,112,0.0,0.0,49,0.00,,---,0.00,VWS V14.01,2013-04-22 09:32:00,
2013-04-22 05:37:00,36.9,19.5,29.80,ESE,112,0.0,0.0,49,0.00,,---,0.00,VWS V14.01,2013-04-22 09:37:00,
2013-04-22 05:42:00,36.7,19.3,29.80,ESE,112,0.0,0.0,49,0.00,,---,0.00,VWS V14.01,2013-04-22 09:42:00,
2013-04-22 05:47:00,36.7,19.8,29.80,East,94,0.0,0.0,50,0.00,,---,0.00,VWS V14.01,2013-04-22 09:47:00,
2013-04-22 05:52:00,36.7,19.8,29.80,East,82,0.0,0.0,50,0.00,,---,0.00,VWS V14.01,2013-04-22 09:52:00,
2013-04-22 05:57:00,36.5,19.6,29.80,East,82,0.0,0.0,50,0.00,,---,0.00,VWS V14.01,2013-04-22 09:57:00,
2013-04-22 06:02:00,36.3,19.5,29.80,East,82,0.0,0.0,50,0.00,,---,0.00,VWS V14.01,2013-04-22 10:02:00,
2013-04-22 06:07:00,36.3,19.9,29.80,East,83,3.1,3.1,51,0.00,,---,0.00,VWS V14.01,2013-04-22 10:07:00,
2013-04-22 06:12:00,36.3,19.9,29.80,East,79,0.0,0.0,51,0.00,,---,0.00,VWS V14.01,2013-04-22 10:12:00,
2013-04-22 06:17:00,36.5,20.1,29.80,ENE,77,0.0,0.0,51,0.00,,---,0.00,VWS V14.01,2013-04-22 10:17:00,
2013-04-22 06:22:00,36.5,20.1,29.80,ENE,77,0.0,0.0,51,0.00,,---,0.00,VWS V14.01,2013-04-22 10:22:00,
2013-04-22 06:27:00,36.5,20.6,29.80,East,80,0.0,0.0,52,0.00,,---,0.00,VWS V14.01,2013-04-22 10:27:00,
2013-04-22 06:32:00,36.5,20.6,29.80,East,79,0.0,0.0,52,0.00,,---,0.00,VWS V14.01,2013-04-22 10:32:00,
2013-04-22 06:37:00,36.5,20.6,29.80,East,79,0.0,0.0,52,0.00,,---,0.00,VWS V14.01,2013-04-22 10:37:00,
2013-04-22 06:42:00,36.7,21.2,29.80,ENE,59,0.0,0.0,53,0.00,,---,0.00,VWS V14.01,2013-04-22 10:42:00,
2013-04-22 06:47:00,37.0,22.0,29.80,ENE,59,0.0,0.0,54,0.00,,---,0.00,VWS V14.01,2013-04-22 10:47:00,
2013-04-22 06:52:00,37.4,22.3,29.80,North,0,0.0,3.6,54,0.00,,---,0.00,VWS V14.01,2013-04-22 10:52:00,
2013-04-22 06:57:00,37.6,22.5,29.80,NE,39,0.0,0.0,54,0.00,,---,0.00,VWS V14.01,2013-04-22 10:57:00,
2013-04-22 07:02:00,37.8,22.2,29.80,East,80,3.1,3.6,53,0.00,,---,0.00,VWS V14.01,2013-04-22 11:02:00,
2013-04-22 07:07:00,38.1,22.5,29.80,ESE,118,0.0,4.5,53,0.00,,---,0.00,VWS V14.01,2013-04-22 11:07:00,
2013-04-22 07:12:00,38.5,22.4,29.80,SE,129,0.0,0.0,52,0.00,,---,0.00,VWS V14.01,2013-04-22 11:12:00,
2013-04-22 07:17:00,38.7,22.1,29.80,ENE,72,0.0,4.0,51,0.00,,---,0.00,VWS V14.01,2013-04-22 11:17:00,
2013-04-22 07:22:00,39.2,21.7,29.80,East,97,2.7,2.7,49,0.00,,---,0.00,VWS V14.01,2013-04-22 11:22:00,
2013-04-22 07:27:00,39.6,22.0,29.80,ENE,62,3.6,4.0,49,0.00,,---,0.00,VWS V14.01,2013-04-22 11:27:00,
2013-04-22 07:32:00,39.9,21.8,29.80,East,99,3.6,5.8,48,0.00,,---,0.00,VWS V14.01,2013-04-22 11:32:00,
2013-04-22 07:37:00,40.3,20.1,29.80,SE,130,4.9,6.3,44,0.00,,---,0.00,VWS V14.01,2013-04-22 11:37:00,
2013-04-22 07:42:00,40.5,19.2,29.80,ESE,119,5.8,6.3,42,0.00,,---,0.00,VWS V14.01,2013-04-22 11:42:00,
2013-04-22 07:47:00,40.3,17.9,29.80,East,91,4.9,8.3,40,0.00,,---,0.00,VWS V14.01,2013-04-22 11:47:00,
2013-04-22 07:52:00,40.3,17.3,29.80,ESE,106,4.0,4.5,39,0.00,,---,0.00,VWS V14.01,2013-04-22 11:52:00,
2013-04-22 07:57:00,40.6,17.6,29.80,ENE,78,6.7,8.3,39,0.00,,---,0.00,VWS V14.01,2013-04-22 11:57:00,
2013-04-22 08:02:00,41.0,17.4,29.80,East,81,5.4,8.3,38,0.00,,---,0.00,VWS V14.01,2013-04-22 12:02:00,
2013-04-22 08:07:00,41.5,17.2,29.80,SE,131,3.1,7.4,37,0.00,,---,0.00,VWS V14.01,2013-04-22 12:07:00,
2013-04-22 08:12:00,41.9,16.3,29.80,ENE,72,3.6,6.7,35,0.00,,---,0.00,VWS V14.01,2013-04-22 12:12:00,
2013-04-22 08:17:00,42.3,15.2,29.80,ENE,64,4.9,4.9,33,0.00,,---,0.00,VWS V14.01,2013-04-22 12:17:00,
2013-04-22 08:22:00,43.2,15.3,29.80,ESE,104,4.0,6.9,32,0.00,,---,0.00,VWS V14.01,2013-04-22 12:22:00,
2013-04-22 08:27:00,43.9,14.5,29.80,SE,136,5.4,6.9,30,0.00,,---,0.00,VWS V14.01,2013-04-22 12:27:00,
2013-04-22 08:32:00,44.2,13.2,29.80,ENE,70,4.0,4.9,28,0.00,,---,0.00,VWS V14.01,2013-04-22 12:32:00,
2013-04-22 08:37:00,44.8,12.9,29.80,ESE,109,3.1,7.4,27,0.00,,---,0.00,VWS V14.01,2013-04-22 12:37:00,
2013-04-22 08:42:00,45.3,11.6,29.80,SE,146,7.4,11.6,25,0.00,,---,0.00,VWS V14.01,2013-04-22 12:42:00,
2013-04-22 08:47:00,45.7,9.0,29.80,NE,47,4.9,7.8,22,0.00,,---,0.00,VWS V14.01,2013-04-22 12:47:00,
2013-04-22 08:52:00,45.9,9.2,29.80,East,91,3.6,4.9,22,0.00,,---,0.00,VWS V14.01,2013-04-22 12:52:00,
2013-04-22 08:57:00,46.4,6.4,29.80,ENE,63,6.7,6.7,19,0.00,,---,0.00,VWS V14.01,2013-04-22 12:57:00,
2013-04-22 09:02:00,46.6,6.5,29.80,South,189,10.1,10.1,19,0.00,,---,0.00,VWS V14.01,2013-04-22 13:02:00,
2013-04-22 09:07:00,46.6,6.5,29.80,SE,129,6.7,6.9,19,0.00,,---,0.00,VWS V14.01,2013-04-22 13:07:00,
2013-04-22 09:12:00,46.9,6.8,29.80,East,96,4.0,8.3,19,0.00,,---,0.00,VWS V14.01,2013-04-22 13:12:00,
2013-04-22 09:17:00,47.7,7.4,29.83,East,98,6.9,9.6,19,0.00,,---,0.00,VWS V14.01,2013-04-22 13:17:00,
2013-04-22 09:22:00,47.8,7.6,29.83,SE,137,6.7,9.6,19,0.00,,---,0.00,VWS V14.01,2013-04-22 13:22:00,
2013-04-22 09:27:00,48.0,7.7,29.83,South,183,11.6,12.1,19,0.00,,---,0.00,VWS V14.01,2013-04-22 13:27:00,
2013-04-22 09:32:00,48.4,8.0,29.83,SSE,158,7.8,8.7,19,0.00,,---,0.00,VWS V14.01,2013-04-22 13:32:00,
2013-04-22 09:37:00,48.6,8.2,29.83,ENE,68,4.9,7.8,19,0.00,,---,0.00,VWS V14.01,2013-04-22 13:37:00,
2013-04-22 09:42:00,48.9,8.5,29.83,South,171,3.6,8.7,19,0.00,,---,0.00,VWS V14.01,2013-04-22 13:42:00,
2013-04-22 09:47:00,49.1,8.6,29.83,ENE,66,6.3,7.8,19,0.00,,---,0.00,VWS V14.01,2013-04-22 13:47:00,
2013-04-22 09:52:00,49.5,8.9,29.83,SE,130,4.0,9.6,19,0.00,,---,0.00,VWS V14.01,2013-04-22 13:52:00,
2013-04-22 09:57:00,50.0,9.4,29.83,SE,135,11.2,11.2,19,0.00,,---,0.00,VWS V14.01,2013-04-22 13:57:00,
2013-04-22 10:02:00,50.0,9.4,29.83,East,99,4.9,9.2,19,0.00,,---,0.00,VWS V14.01,2013-04-22 14:02:00,
2013-04-22 10:07:00,50.4,9.7,29.83,SE,128,6.9,10.1,19,0.00,,---,0.00,VWS V14.01,2013-04-22 14:07:00,
2013-04-22 10:12:00,51.1,9.1,29.83,SSE,147,10.1,10.1,18,0.00,,---,0.00,VWS V14.01,2013-04-22 14:12:00,
2013-04-22 10:17:00,51.4,9.4,29.80,East,80,10.5,10.5,18,0.00,,---,0.00,VWS V14.01,2013-04-22 14:17:00,
2013-04-22 10:22:00,51.3,9.2,29.80,SE,146,6.9,9.2,18,0.00,,---,0.00,VWS V14.01,2013-04-22 14:22:00,
2013-04-22 10:27:00,50.9,8.9,29.80,ESE,116,4.5,7.4,18,0.00,,---,0.00,VWS V14.01,2013-04-22 14:27:00,
2013-04-22 10:32:00,51.6,9.5,29.80,SE,124,3.6,6.9,18,0.00,,---,0.00,VWS V14.01,2013-04-22 14:32:00,
2013-04-22 10:37:00,52.3,10.1,29.80,ENE,63,5.4,8.3,18,0.00,,---,0.00,VWS V14.01,2013-04-22 14:37:00,
2013-04-22 10:42:00,52.7,10.4,29.80,SE,132,6.9,8.3,18,0.00,,---,0.00,VWS V14.01,2013-04-22 14:42:00,
2013-04-22 10:47:00,52.5,10.2,29.80,East,96,6.3,6.7,18,0.00,,---,0.00,VWS V14.01,2013-04-22 14:47:00,
2013-04-22 10:52:00,53.2,10.9,29.80,ENE,78,6.3,9.6,18,0.00,,---,0.00,VWS V14.01,2013-04-22 14:52:00,
2013-04-22 10:57:00,54.0,11.4,29.80,East,80,2.7,3.6,18,0.00,,---,0.00,VWS V14.01,2013-04-22 14:57:00,
2013-04-22 11:02:00,54.5,11.9,29.80,ENE,75,4.5,6.7,18,0.00,,---,0.00,VWS V14.01,2013-04-22 15:02:00,
2013-04-22 11:07:00,54.7,10.7,29.80,ESE,116,3.6,7.4,17,0.00,,---,0.00,VWS V14.01,2013-04-22 15:07:00,
2013-04-22 11:12:00,54.3,11.7,29.80,ESE,105,4.0,8.3,18,0.00,,---,0.00,VWS V14.01,2013-04-22 15:12:00,
2013-04-22 11:17:00,54.1,11.6,29.80,East,87,6.7,8.7,18,0.00,,---,0.00,VWS V14.01,2013-04-22 15:17:00,
2013-04-22 11:22:00,54.5,11.9,29.80,East,91,3.1,7.4,18,0.00,,---,0.00,VWS V14.01,2013-04-22 15:22:00,
2013-04-22 11:27:00,54.3,11.7,29.80,ENE,78,4.9,4.9,18,0.00,,---,0.00,VWS V14.01,2013-04-22 15:27:00,
2013-04-22 11:32:00,55.2,11.2,29.77,ENE,76,3.1,8.3,17,0.00,,---,0.00,VWS V14.01,2013-04-22 15:32:00,
2013-04-22 11:37:00,55.6,11.5,29.77,ESE,111,6.3,7.8,17,0.00,,---,0.00,VWS V14.01,2013-04-22 15:37:00,
2013-04-22 11:42:00,55.4,11.3,29.77,East,97,5.8,8.7,17,0.00,,---,0.00,VWS V14.01,2013-04-22 15:42:00,
2013-04-22 11:47:00,55.6,11.5,29.77,South,185,2.7,6.7,17,0.00,,---,0.00,VWS V14.01,2013-04-22 15:47:00,
2013-04-22 11:52:00,55.8,11.6,29.77,ESE,103,5.8,6.9,17,0.00,,---,0.00,VWS V14.01,2013-04-22 15:52:00,
2013-04-22 11:57:00,55.4,11.3,29.77,SSE,152,5.4,9.2,17,0.00,,---,0.00,VWS V14.01,2013-04-22 15:57:00,
2013-04-22 12:02:00,55.0,11.0,29.77,SE,126,4.5,5.4,17,0.00,,---,0.00,VWS V14.01,2013-04-22 16:02:00,
2013-04-22 12:07:00,55.4,11.3,29.77,South,170,10.1,10.1,17,0.00,,---,0.00,VWS V14.01,2013-04-22 16:07:00,
2013-04-22 12:12:00,55.4,11.3,29.77,ESE,110,3.6,6.7,17,0.00,,---,0.00,VWS V14.01,2013-04-22 16:12:00,
2013-04-22 12:17:00,55.9,11.8,29.77,ESE,111,8.3,8.3,17,0.00,,---,0.00,VWS V14.01,2013-04-22 16:17:00,
2013-04-22 12:22:00,56.1,11.9,29.77,ENE,71,4.0,5.8,17,0.00,,---,0.00,VWS V14.01,2013-04-22 16:22:00,
2013-04-22 12:27:00,56.3,12.1,29.77,ENE,77,5.4,6.7,17,0.00,,---,0.00,VWS V14.01,2013-04-22 16:27:00,
2013-04-22 12:33:00,56.1,11.9,29.77,SE,136,4.0,9.2,17,0.00,,---,0.00,VWS V14.01,2013-04-22 16:33:00,
2013-04-22 12:38:00,56.1,11.9,29.77,ESE,113,4.9,6.9,17,0.00,,---,0.00,VWS V14.01,2013-04-22 16:38:00,
2013-04-22 12:43:00,56.5,12.2,29.77,South,191,5.8,5.8,17,0.00,,---,0.00,VWS V14.01,2013-04-22 16:43:00,
2013-04-22 12:48:00,56.3,12.1,29.74,South,172,3.6,7.4,17,0.00,,---,0.00,VWS V14.01,2013-04-22 16:48:00,
2013-04-22 12:53:00,56.3,12.1,29.74,SSE,148,4.0,5.8,17,0.00,,---,0.00,VWS V14.01,2013-04-22 16:53:00,
2013-04-22 12:58:00,56.7,12.4,29.74,SE,125,7.4,7.4,17,0.00,,---,0.00,VWS V14.01,2013-04-22 16:58:00,
2013-04-22 13:03:00,57.6,13.1,29.74,NNE,25,6.9,12.1,17,0.00,,---,0.00,VWS V14.01,2013-04-22 17:03:00,
2013-04-22 13:08:00,57.2,12.8,29.74,SSE,147,3.1,4.9,17,0.00,,---,0.00,VWS V14.01,2013-04-22 17:08:00,
2013-04-22 13:13:00,56.5,12.2,29.74,ESE,114,5.4,7.4,17,0.00,,---,0.00,VWS V14.01,2013-04-22 17:13:00,
2013-04-22 13:18:00,56.3,12.1,29.77,ESE,118,6.3,6.3,17,0.00,,---,0.00,VWS V14.01,2013-04-22 17:18:00,
2013-04-22 13:23:00,56.5,12.2,29.77,SW,228,4.0,12.1,17,0.00,,---,0.00,VWS V14.01,2013-04-22 17:23:00,
2013-04-22 13:28:00,56.8,12.5,29.77,East,90,4.0,5.8,17,0.00,,---,0.00,VWS V14.01,2013-04-22 17:28:00,
2013-04-22 13:33:00,56.8,12.5,29.74,NE,50,0.0,6.3,17,0.00,,---,0.00,VWS V14.01,2013-04-22 17:33:00,
2013-04-22 13:38:00,56.5,12.2,29.74,SE,133,5.8,6.7,17,0.00,,---,0.00,VWS V14.01,2013-04-22 17:38:00,
2013-04-22 13:43:00,56.3,12.1,29.74,East,91,3.6,6.3,17,0.00,,---,0.00,VWS V14.01,2013-04-22 17:43:00,
2013-04-22 13:48:00,55.9,11.8,29.74,East,85,5.8,5.8,17,0.00,,---,0.00,VWS V14.01,2013-04-22 17:48:00,
2013-04-22 13:53:00,55.2,11.2,29.74,SSE,150,3.6,5.8,17,0.00,,---,0.00,VWS V14.01,2013-04-22 17:53:00,
2013-04-22 13:58:00,54.5,10.6,29.74,SE,128,6.9,10.1,17,0.00,,---,0.00,VWS V14.01,2013-04-22 17:58:00,
2013-04-22 14:03:00,53.8,11.3,29.74,East,85,4.5,5.8,18,0.00,,---,0.00,VWS V14.01,2013-04-22 18:03:00,
2013-04-22 14:08:00,53.6,11.1,29.74,East,83,4.9,7.4,18,0.00,,---,0.00,VWS V14.01,2013-04-22 18:08:00,
2013-04-22 14:13:00,53.6,11.1,29.74,ESE,113,5.4,5.8,18,0.00,,---,0.00,VWS V14.01,2013-04-22 18:13:00,
2013-04-22 14:18:00,53.4,11.0,29.74,ESE,115,4.9,7.4,18,0.00,,---,0.00,VWS V14.01,2013-04-22 18:18:00,
2013-04-22 14:23:00,53.2,10.9,29.74,SE,132,0.0,4.5,18,0.00,,---,0.00,VWS V14.01,2013-04-22 18:23:00,
2013-04-22 14:28:00,53.2,10.9,29.74,South,182,5.8,7.4,18,0.00,,---,0.00,VWS V14.01,2013-04-22 18:28:00,
2013-04-22 14:33:00,53.1,10.7,29.71,SSE,164,5.8,5.8,18,0.00,,---,0.00,VWS V14.01,2013-04-22 18:33:00,
2013-04-22 14:38:00,52.9,10.6,29.71,ESE,112,6.3,11.2,18,0.00,,---,0.00,VWS V14.01,2013-04-22 18:38:00,
2013-04-22 14:43:00,52.5,10.2,29.71,South,170,5.4,6.3,18,0.00,,---,0.00,VWS V14.01,2013-04-22 18:43:00,
2013-04-22 14:48:00,52.3,10.1,29.71,ESE,108,2.7,8.3,18,0.00,,---,0.00,VWS V14.01,2013-04-22 18:48:00,
2013-04-22 14:53:00,52.7,10.4,29.71,East,88,5.4,5.4,18,0.00,,---,0.00,VWS V14.01,2013-04-22 18:53:00,
2013-04-22 14:58:00,53.2,10.9,29.71,SE,140,5.4,7.8,18,0.00,,---,0.00,VWS V14.01,2013-04-22 18:58:00,
2013-04-22 15:03:00,53.1,10.7,29.71,SSW,192,4.0,5.4,18,0.00,,---,0.00,VWS V14.01,2013-04-22 19:03:00,
2013-04-22 15:08:00,53.2,10.9,29.71,SSW,201,4.9,6.3,18,0.00,,---,0.00,VWS V14.01,2013-04-22 19:08:00,
2013-04-22 15:13:00,53.2,10.9,29.71,SSE,148,8.3,8.3,18,0.00,,---,0.00,VWS V14.01,2013-04-22 19:13:00,
2013-04-22 15:18:00,53.1,10.7,29.71,East,86,3.6,8.3,18,0.00,,---,0.00,VWS V14.01,2013-04-22 19:18:00,
2013-04-22 15:23:00,52.7,10.4,29.71,NE,43,5.8,8.3,18,0.00,,---,0.00,VWS V14.01,2013-04-22 19:23:00,
2013-04-22 15:28:00,52.5,10.2,29.71,ESE,107,8.3,9.6,18,0.00,,---,0.00,VWS V14.01,2013-04-22 19:28:00,
2013-04-22 15:33:00,52.3,10.1,29.71,North,0,4.5,4.5,18,0.00,,---,0.00,VWS V14.01,2013-04-22 19:33:00,
2013-04-22 15:38:00,52.3,10.1,29.71,SE,124,5.4,5.8,18,0.00,,---,0.00,VWS V14.01,2013-04-22 19:38:00,
2013-04-22 15:43:00,52.3,10.1,29.71,East,87,6.7,9.6,18,0.00,,---,0.00,VWS V14.01,2013-04-22 19:43:00,
2013-04-22 15:48:00,52.3,10.1,29.71,SE,134,3.6,5.4,18,0.00,,---,0.00,VWS V14.01,2013-04-22 19:48:00,
2013-04-22 15:53:00,52.3,10.1,29.71,SE,139,4.5,7.4,18,0.00,,---,0.00,VWS V14.01,2013-04-22 19:53:00,
2013-04-22 15:58:00,52.7,10.4,29.71,SE,143,7.4,11.0,18,0.00,,---,0.00,VWS V14.01,2013-04-22 19:58:00,
2013-04-22 16:03:00,52.3,10.1,29.71,SSE,154,6.3,8.7,18,0.00,,---,0.00,VWS V14.01,2013-04-22 20:03:00,
2013-04-22 16:08:00,52.0,9.8,29.71,SSE,155,0.0,6.7,18,0.00,,---,0.00,VWS V14.01,2013-04-22 20:08:00,
2013-04-22 16:13:00,51.8,9.7,29.71,South,169,6.3,8.3,18,0.00,,---,0.00,VWS V14.01,2013-04-22 20:13:00,
2013-04-22 16:18:00,51.4,9.4,29.68,SSE,152,5.4,8.7,18,0.00,,---,0.00,VWS V14.01,2013-04-22 20:18:00,
2013-04-22 16:23:00,51.4,9.4,29.68,ESE,121,4.5,6.3,18,0.00,,---,0.00,VWS V14.01,2013-04-22 20:23:00,
2013-04-22 16:28:00,51.3,9.2,29.68,SE,146,7.8,7.8,18,0.00,,---,0.00,VWS V14.01,2013-04-22 20:28:00,
2013-04-22 16:33:00,50.7,10.0,29.68,SSE,154,6.7,9.2,19,0.00,,---,0.00,VWS V14.01,2013-04-22 20:33:00,
2013-04-22 16:38:00,50.4,9.7,29.68,South,181,4.5,9.2,19,0.00,,---,0.00,VWS V14.01,2013-04-22 20:38:00,
2013-04-22 16:43:00,50.2,9.5,29.68,SE,142,3.6,11.2,19,0.00,,---,0.00,VWS V14.01,2013-04-22 20:43:00,
2013-04-22 16:48:00,50.2,9.5,29.68,SSE,164,4.5,7.4,19,0.00,,---,0.00,VWS V14.01,2013-04-22 20:48:00,
2013-04-22 16:53:00,50.2,9.5,29.68,SSW,194,5.8,10.1,19,0.00,,---,0.00,VWS V14.01,2013-04-22 20:53:00,
2013-04-22 16:58:00,50.0,9.4,29.68,South,191,4.0,7.8,19,0.00,,---,0.00,VWS V14.01,2013-04-22 20:58:00,
2013-04-22 17:03:00,50.0,9.4,29.68,SSE,155,5.4,7.4,19,0.00,,---,0.00,VWS V14.01,2013-04-22 21:03:00,
2013-04-22 17:08:00,49.6,9.1,29.68,East,80,4.0,7.4,19,0.00,,---,0.00,VWS V14.01,2013-04-22 21:08:00,
2013-04-22 17:13:00,49.6,9.1,29.68,SSE,150,3.6,7.8,19,0.00,,---,0.00,VWS V14.01,2013-04-22 21:13:00,
2013-04-22 17:18:00,49.6,9.1,29.68,SSW,192,5.4,7.8,19,0.00,,---,0.00,VWS V14.01,2013-04-22 21:18:00,
2013-04-22 17:23:00,49.6,9.1,29.68,SW,230,5.8,7.8,19,0.00,,---,0.00,VWS V14.01,2013-04-22 21:23:00,
2013-04-22 17:28:00,49.5,8.9,29.68,South,179,5.4,11.6,19,0.00,,---,0.00,VWS V14.01,2013-04-22 21:28:00,
2013-04-22 17:33:00,49.3,8.8,29.68,SE,128,5.4,7.4,19,0.00,,---,0.00,VWS V14.01,2013-04-22 21:33:00,
2013-04-22 17:38:00,49.1,8.6,29.68,SSE,150,8.3,8.3,19,0.00,,---,0.00,VWS V14.01,2013-04-22 21:38:00,
2013-04-22 17:43:00,48.9,8.5,29.68,SE,127,6.9,7.4,19,0.00,,---,0.00,VWS V14.01,2013-04-22 21:43:00,
2013-04-22 17:48:00,48.7,8.3,29.68,ESE,107,6.3,9.6,19,0.00,,---,0.00,VWS V14.01,2013-04-22 21:48:00,
2013-04-22 17:53:00,48.6,8.2,29.68,NE,53,4.5,6.7,19,0.00,,---,0.00,VWS V14.01,2013-04-22 21:53:00,
2013-04-22 17:58:00,48.6,8.2,29.68,SE,140,5.8,6.9,19,0.00,,---,0.00,VWS V14.01,2013-04-22 21:58:00,
2013-04-22 18:03:00,48.4,4.3,29.68,SSE,157,0.0,4.5,16,0.00,,---,0.00,VWS V14.01,2013-04-22 22:03:00,
2013-04-22 18:08:00,48.2,7.9,29.68,SSE,164,4.9,7.8,19,0.00,,---,0.00,VWS V14.01,2013-04-22 22:08:00,
2013-04-22 18:13:00,48.0,7.7,29.68,South,186,4.0,7.8,19,0.00,,---,0.00,VWS V14.01,2013-04-22 22:13:00,
2013-04-22 18:18:00,47.8,7.6,29.68,SSE,148,5.8,7.4,19,0.00,,---,0.00,VWS V14.01,2013-04-22 22:18:00,
2013-04-22 18:23:00,47.7,7.4,29.68,South,176,4.5,5.8,19,0.00,,---,0.00,VWS V14.01,2013-04-22 22:23:00,
2013-04-22 18:28:00,47.7,7.4,29.68,SSW,196,3.6,5.8,19,0.00,,---,0.00,VWS V14.01,2013-04-22 22:28:00,
2013-04-22 18:33:00,47.5,7.3,29.68,SSW,195,3.1,5.8,19,0.00,,---,0.00,VWS V14.01,2013-04-22 22:33:00,
2013-04-22 18:38:00,47.3,7.1,29.68,SE,133,5.4,5.8,19,0.00,,---,0.00,VWS V14.01,2013-04-22 22:38:00,
2013-04-22 18:43:00,47.1,7.0,29.68,SSE,166,7.8,8.7,19,0.00,,---,0.00,VWS V14.01,2013-04-22 22:43:00,
2013-04-22 18:48:00,46.9,6.8,29.68,SSE,164,5.4,6.7,19,0.00,,---,0.00,VWS V14.01,2013-04-22 22:48:00,
2013-04-22 18:53:00,46.8,6.7,29.68,South,190,3.6,7.8,19,0.00,,---,0.00,VWS V14.01,2013-04-22 22:53:00,
2013-04-22 18:58:00,46.6,6.5,29.68,SSE,167,6.3,6.3,19,0.00,,---,0.00,VWS V14.01,2013-04-22 22:58:00,
2013-04-22 19:03:00,46.6,6.5,29.68,ESE,118,5.8,6.7,19,0.00,,---,0.00,VWS V14.01,2013-04-22 23:03:00,
2013-04-22 19:08:00,46.2,6.2,29.68,South,187,8.3,9.2,19,0.00,,---,0.00,VWS V14.01,2013-04-22 23:08:00,
2013-04-22 19:13:00,45.9,5.9,29.68,East,84,9.6,9.6,19,0.00,,---,0.00,VWS V14.01,2013-04-22 23:13:00,
2013-04-22 19:18:00,45.7,9.0,29.68,SE,146,5.8,6.7,22,0.00,,---,0.00,VWS V14.01,2013-04-22 23:18:00,
2013-04-22 19:23:00,45.5,11.7,29.68,SE,130,3.1,4.9,25,0.00,,---,0.00,VWS V14.01,2013-04-22 23:23:00,
2013-04-22 19:28:00,45.3,13.3,29.68,SSE,155,3.6,4.9,27,0.00,,---,0.00,VWS V14.01,2013-04-22 23:28:00,
2013-04-22 19:33:00,45.1,14.0,29.68,ESE,112,3.6,4.9,28,0.00,,---,0.00,VWS V14.01,2013-04-22 23:33:00,
2013-04-22 19:38:00,45.0,13.8,29.68,ENE,75,3.6,4.5,28,0.00,,---,0.00,VWS V14.01,2013-04-22 23:38:00,
2013-04-22 19:43:00,44.8,15.3,29.68,SE,128,7.8,7.8,30,0.00,,---,0.00,VWS V14.01,2013-04-22 23:43:00,
2013-04-22 19:48:00,44.6,15.9,29.68,SW,221,0.0,6.3,31,0.00,,---,0.00,VWS V14.01,2013-04-22 23:48:00,
2013-04-22 19:53:00,44.4,17.1,29.68,SSE,159,4.9,8.3,33,0.00,,---,0.00,VWS V14.01,2013-04-22 23:53:00,
2013-04-22 19:58:00,44.2,17.0,29.68,SE,142,4.9,7.4,33,0.00,,---,0.00,VWS V14.01,2013-04-22 23:58:00,
2013-04-22 20:03:00,44.1,18.2,29.68,SSE,152,3.1,5.4,35,0.00,,---,0.00,VWS V14.01,2013-04-23 00:03:00,
2013-04-22 20:08:00,43.9,19.3,29.68,ESE,118,4.5,4.5,37,0.00,,---,0.00,VWS V14.01,2013-04-23 00:08:00,
2013-04-22 20:13:00,43.7,19.8,29.68,SSW,197,6.7,6.7,38,0.00,,---,0.00,VWS V14.01,2013-04-23 00:13:00,
2013-04-22 20:18:00,43.5,20.2,29.68,East,97,4.0,7.4,39,0.00,,---,0.00,VWS V14.01,2013-04-23 00:18:00,
2013-04-22 20:23:00,43.3,20.6,29.68,South,176,2.7,5.8,40,0.00,,---,0.00,VWS V14.01,2013-04-23 00:23:00,
2013-04-22 20:28:00,43.3,20.6,29.68,South,175,3.1,5.4,40,0.00,,---,0.00,VWS V14.01,2013-04-23 00:28:00,
2013-04-22 20:33:00,43.2,21.1,29.68,South,191,4.0,7.4,41,0.00,,---,0.00,VWS V14.01,2013-04-23 00:33:00,
2013-04-22 20:38:00,43.0,20.9,29.68,South,188,4.0,5.8,41,0.00,,---,0.00,VWS V14.01,2013-04-23 00:38:00,
2013-04-22 20:43:00,42.8,21.3,29.68,ESE,105,0.0,4.9,42,0.00,,---,0.00,VWS V14.01,2013-04-23 00:43:00,
2013-04-22 20:48:00,42.8,21.9,29.68,SSW,199,4.5,6.7,43,0.00,,---,0.00,VWS V14.01,2013-04-23 00:48:00,
2013-04-22 20:53:00,42.6,21.7,29.68,SSE,147,4.5,5.4,43,0.00,,---,0.00,VWS V14.01,2013-04-23 00:53:00,
2013-04-22 20:58:00,42.4,22.1,29.68,SSE,161,5.4,6.7,44,0.00,,---,0.00,VWS V14.01,2013-04-23 00:58:00,
2013-04-22 21:03:00,42.4,22.1,29.68,SSE,151,4.5,5.4,44,0.00,,---,0.00,VWS V14.01,2013-04-23 01:03:00,
2013-04-22 21:08:00,42.3,21.9,29.68,SE,125,4.5,4.5,44,0.00,,---,0.00,VWS V14.01,2013-04-23 01:08:00,
2013-04-22 21:13:00,42.1,21.8,29.68,SSW,198,4.5,7.8,44,0.00,,---,0.00,VWS V14.01,2013-04-23 01:13:00,
2013-04-22 21:18:00,42.1,21.8,29.68,SSE,160,0.0,4.0,44,0.00,,---,0.00,VWS V14.01,2013-04-23 01:18:00,
2013-04-22 21:23:00,41.9,21.6,29.68,SSE,159,4.5,5.8,44,0.00,,---,0.00,VWS V14.01,2013-04-23 01:23:00,
2013-04-22 21:28:00,41.9,22.6,29.68,East,85,2.7,5.4,46,0.00,,---,0.00,VWS V14.01,2013-04-23 01:28:00,
2013-04-22 21:33:00,41.7,22.5,29.68,SE,141,3.6,4.9,46,0.00,,---,0.00,VWS V14.01,2013-04-23 01:33:00,
2013-04-22 21:38:00,41.5,22.3,29.68,SSE,156,2.7,4.5,46,0.00,,---,0.00,VWS V14.01,2013-04-23 01:38:00,
2013-04-22 21:43:00,41.5,22.8,29.68,SSE,159,0.0,4.5,47,0.00,,---,0.00,VWS V14.01,2013-04-23 01:43:00,
2013-04-22 21:48:00,41.4,22.7,29.68,SSW,195,2.7,4.5,47,0.00,,---,0.00,VWS V14.01,2013-04-23 01:48:00,
2013-04-22 21:53:00,41.2,23.0,29.68,SSE,167,4.0,4.0,48,0.00,,---,0.00,VWS V14.01,2013-04-23 01:53:00,
2013-04-22 21:58:00,41.2,23.0,29.68,SSE,159,3.1,4.0,48,0.00,,---,0.00,VWS V14.01,2013-04-23 01:58:00,
2013-04-22 22:03:00,41.2,23.0,29.68,SSE,155,4.9,4.9,48,0.00,,---,0.00,VWS V14.01,2013-04-23 02:03:00,
2013-04-22 22:08:00,41.0,22.8,29.68,SSE,167,5.4,5.8,48,0.00,,---,0.00,VWS V14.01,2013-04-23 02:08:00,
2013-04-22 22:13:00,41.0,22.8,29.68,SSE,163,4.5,4.5,48,0.00,,---,0.00,VWS V14.01,2013-04-23 02:13:00,
2013-04-22 22:18:00,40.8,22.7,29.68,SE,136,3.1,5.4,48,0.00,,---,0.00,VWS V14.01,2013-04-23 02:18:00,
2013-04-22 22:23:00,40.6,22.5,29.68,SSE,165,5.4,5.4,48,0.00,,---,0.00,VWS V14.01,2013-04-23 02:23:00,
2013-04-22 22:28:00,40.6,22.5,29.68,SSE,151,4.9,4.9,48,0.00,,---,0.00,VWS V14.01,2013-04-23 02:28:00,
2013-04-22 22:33:00,40.5,22.8,29.68,SSE,152,2.7,5.8,49,0.00,,---,0.00,VWS V14.01,2013-04-23 02:33:00,
2013-04-22 22:38:00,40.5,22.8,29.68,SSE,156,4.0,5.4,49,0.00,,---,0.00,VWS V14.01,2013-04-23 02:38:00,
2013-04-22 22:43:00,40.5,22.8,29.68,ESE,106,3.1,4.9,49,0.00,,---,0.00,VWS V14.01,2013-04-23 02:43:00,
2013-04-22 22:48:00,40.3,22.7,29.65,SSE,149,3.6,3.6,49,0.00,,---,0.00,VWS V14.01,2013-04-23 02:48:00,
2013-04-22 22:53:00,40.3,22.7,29.65,SSE,153,3.1,4.0,49,0.00,,---,0.00,VWS V14.01,2013-04-23 02:53:00,
2013-04-22 22:58:00,40.3,22.7,29.65,SSE,150,0.0,4.0,49,0.00,,---,0.00,VWS V14.01,2013-04-23 02:58:00,
2013-04-22 23:03:00,40.3,23.1,29.65,East,99,4.0,4.0,50,0.00,,---,0.00,VWS V14.01,2013-04-23 03:03:00,
2013-04-22 23:08:00,40.1,23.0,29.65,SSE,151,4.0,4.5,50,0.00,,---,0.00,VWS V14.01,2013-04-23 03:08:00,
2013-04-22 23:13:00,39.9,22.8,29.65,East,89,3.1,5.4,50,0.00,,---,0.00,VWS V14.01,2013-04-23 03:13:00,
2013-04-22 23:18:00,39.9,22.8,29.65,SSE,155,0.0,0.0,50,0.00,,---,0.00,VWS V14.01,2013-04-23 03:18:00,
2013-04-22 23:23:00,39.7,22.6,29.65,SE,138,3.1,4.0,50,0.00,,---,0.00,VWS V14.01,2013-04-23 03:23:00,
2013-04-22 23:28:00,39.7,23.1,29.65,SSE,165,0.0,2.7,51,0.00,,---,0.00,VWS V14.01,2013-04-23 03:28:00,
2013-04-22 23:33:00,39.7,23.1,29.65,SSE,154,4.9,5.4,51,0.00,,---,0.00,VWS V14.01,2013-04-23 03:33:00,
2013-04-22 23:38:00,39.7,23.1,29.65,SSE,151,0.0,4.0,51,0.00,,---,0.00,VWS V14.01,2013-04-23 03:38:00,
2013-04-22 23:43:00,39.6,23.4,29.65,South,187,3.1,4.0,52,0.00,,---,0.00,VWS V14.01,2013-04-23 03:43:00,
2013-04-22 23:48:00,39.6,23.4,29.65,South,184,3.6,6.3,52,0.00,,---,0.00,VWS V14.01,2013-04-23 03:48:00,
2013-04-22 23:53:00,39.4,23.2,29.65,SSE,147,4.0,4.9,52,0.00,,---,0.00,VWS V14.01,2013-04-23 03:53:00,
2013-04-22 23:58:00,39.4,23.7,29.65,SSE,147,3.6,4.5,53,0.00,,---,0.00,VWS V14.01,2013-04-23 03:58:00,